createdAt,value
2017-12-23T00:00:39.926Z,0
2017-12-23T00:01:50.050Z,0
2017-12-23T00:03:01.160Z,0
2017-12-23T00:04:11.358Z,0
2017-12-23T00:05:21.546Z,0
2017-12-23T00:06:31.884Z,0
2017-12-23T00:07:42.165Z,0
2017-12-23T00:08:52.314Z,0
2017-12-23T00:10:02.290Z,0
2017-12-23T00:11:12.422Z,0
2017-12-23T00:12:22.023Z,0
2017-12-23T00:13:32.127Z,0
2017-12-23T00:14:42.299Z,0
2017-12-23T00:15:52.413Z,0
2017-12-23T00:17:02.575Z,0
2017-12-23T00:18:12.800Z,0
2017-12-23T00:19:22.696Z,0
2017-12-23T00:20:32.938Z,0
2017-12-23T00:21:43.070Z,0
2017-12-23T00:22:53.211Z,0
2017-12-23T00:24:03.190Z,0
2017-12-23T00:25:13.315Z,0
2017-12-23T00:26:23.416Z,0
2017-12-23T00:27:33.552Z,0
2017-12-23T00:28:43.675Z,0
2017-12-23T00:29:53.532Z,0
2017-12-23T00:31:03.725Z,0
2017-12-23T00:32:13.869Z,0
2017-12-23T00:33:24.068Z,0
2017-12-23T00:34:34.282Z,0
2017-12-23T00:35:43.809Z,0
2017-12-23T00:36:53.677Z,0
2017-12-23T00:38:03.849Z,0
2017-12-23T00:39:13.970Z,0
2017-12-23T00:40:23.841Z,0
2017-12-23T00:41:33.988Z,0
2017-12-23T00:42:44.142Z,0
2017-12-23T00:43:54.245Z,0
2017-12-23T00:45:04.411Z,0
2017-12-23T00:46:14.532Z,0
2017-12-23T00:47:24.690Z,0
2017-12-23T00:48:34.914Z,0
2017-12-23T00:49:44.797Z,0
2017-12-23T00:50:54.981Z,0
2017-12-23T00:52:05.106Z,0
2017-12-23T00:53:15.074Z,0
2017-12-23T00:54:25.191Z,0
2017-12-23T00:55:35.325Z,0
2017-12-23T00:56:45.478Z,0
2017-12-23T00:57:55.595Z,0
2017-12-23T00:59:05.723Z,0
2017-12-23T01:00:15.829Z,0
2017-12-23T01:01:25.418Z,0
2017-12-23T01:02:35.538Z,0
2017-12-23T01:03:45.665Z,0
2017-12-23T01:04:55.533Z,0
2017-12-23T01:06:05.692Z,0
2017-12-23T01:07:15.801Z,0
2017-12-23T01:08:25.913Z,0
2017-12-23T01:09:36.081Z,0
2017-12-23T01:10:46.081Z,0
2017-12-23T01:11:56.186Z,0
2017-12-23T01:13:06.292Z,0
2017-12-23T01:14:16.152Z,0
2017-12-23T01:15:26.037Z,0
2017-12-23T01:16:36.195Z,0
2017-12-23T01:17:47.295Z,0
2017-12-23T01:18:57.461Z,0
2017-12-23T01:20:07.586Z,0
2017-12-23T01:21:17.710Z,0
2017-12-23T01:22:27.926Z,0
2017-12-23T01:23:37.811Z,0
2017-12-23T01:24:48.074Z,0
2017-12-23T01:25:58.303Z,0
2017-12-23T01:27:08.461Z,0
2017-12-23T01:28:18.620Z,0
2017-12-23T01:29:28.838Z,0
2017-12-23T01:30:39.089Z,0
2017-12-23T01:31:49.215Z,0
2017-12-23T01:32:59.314Z,0
2017-12-23T01:34:09.450Z,0
2017-12-23T01:35:20.280Z,0
2017-12-23T01:36:30.376Z,0
2017-12-23T01:37:40.263Z,0
2017-12-23T01:38:50.394Z,0
2017-12-23T01:40:00.250Z,0
2017-12-23T01:41:10.375Z,0
2017-12-23T01:42:20.240Z,0
2017-12-23T01:43:31.330Z,0
2017-12-23T01:44:41.433Z,0
2017-12-23T01:45:51.561Z,0
2017-12-23T01:47:01.062Z,0
2017-12-23T01:48:10.928Z,0
2017-12-23T01:49:21.174Z,0
2017-12-23T01:50:31.044Z,0
2017-12-23T01:51:40.905Z,0
2017-12-23T01:52:51.020Z,0
2017-12-23T01:54:01.166Z,0
2017-12-23T01:55:11.396Z,0
2017-12-23T01:56:21.159Z,0
2017-12-23T01:57:31.341Z,0
2017-12-23T01:58:41.466Z,0
2017-12-23T01:59:51.321Z,0
2017-12-23T02:01:01.439Z,0
2017-12-23T02:02:11.582Z,0
2017-12-23T02:03:21.782Z,0
2017-12-23T02:04:31.914Z,0
2017-12-23T02:05:43.000Z,0
2017-12-23T02:06:53.127Z,0
2017-12-23T02:08:02.976Z,0
2017-12-23T02:09:13.103Z,0
2017-12-23T02:10:22.971Z,0
2017-12-23T02:11:33.138Z,0
2017-12-23T02:12:43.263Z,0
2017-12-23T02:13:53.140Z,0
2017-12-23T02:15:02.979Z,0
2017-12-23T02:16:13.094Z,0
2017-12-23T02:17:23.193Z,0
2017-12-23T02:18:33.352Z,0
2017-12-23T02:19:43.490Z,0
2017-12-23T02:20:53.345Z,0
2017-12-23T02:22:03.470Z,0
2017-12-23T02:23:13.689Z,0
2017-12-23T02:24:23.820Z,0
2017-12-23T02:25:33.955Z,0
2017-12-23T02:26:43.802Z,0
2017-12-23T02:27:53.906Z,0
2017-12-23T02:29:04.028Z,0
2017-12-23T02:30:14.163Z,0
2017-12-23T02:31:24.279Z,0
2017-12-23T02:32:34.391Z,0
2017-12-23T02:33:44.536Z,0
2017-12-23T02:34:54.664Z,0
2017-12-23T02:36:04.816Z,0
2017-12-23T02:37:14.990Z,0
2017-12-23T02:38:25.205Z,0
2017-12-23T02:39:35.049Z,0
2017-12-23T02:40:45.155Z,0
2017-12-23T02:41:55.309Z,0
2017-12-23T02:43:05.556Z,0
2017-12-23T02:44:15.408Z,0
2017-12-23T02:45:25.617Z,0
2017-12-23T02:46:35.459Z,0
2017-12-23T02:47:45.574Z,0
2017-12-23T02:48:55.696Z,0
2017-12-23T02:50:05.562Z,0
2017-12-23T02:51:15.698Z,0
2017-12-23T02:52:25.921Z,0
2017-12-23T02:53:36.134Z,0
2017-12-23T02:54:46.346Z,0
2017-12-23T02:55:56.554Z,0
2017-12-23T02:57:06.891Z,0
2017-12-23T02:58:17.016Z,0
2017-12-23T02:59:27.232Z,0
2017-12-23T03:00:37.126Z,0
2017-12-23T03:01:47.245Z,0
2017-12-23T03:02:57.381Z,0
2017-12-23T03:04:07.123Z,0
2017-12-23T03:05:17.250Z,0
2017-12-23T03:06:27.136Z,0
2017-12-23T03:07:37.281Z,0
2017-12-23T03:08:47.519Z,0
2017-12-23T03:09:57.661Z,0
2017-12-23T03:11:07.850Z,0
2017-12-23T03:12:17.957Z,0
2017-12-23T03:13:28.084Z,0
2017-12-23T03:14:38.272Z,0
2017-12-23T03:15:48.201Z,0
2017-12-23T03:16:58.307Z,0
2017-12-23T03:18:08.158Z,0
2017-12-23T03:19:18.282Z,0
2017-12-23T03:20:28.401Z,0
2017-12-23T03:21:38.542Z,0
2017-12-23T03:22:48.391Z,0
2017-12-23T03:23:58.533Z,0
2017-12-23T03:25:08.696Z,0
2017-12-23T03:26:19.124Z,0
2017-12-23T03:27:29.242Z,0
2017-12-23T03:28:39.352Z,0
2017-12-23T03:29:49.496Z,0
2017-12-23T03:30:59.725Z,0
2017-12-23T03:32:09.890Z,0
2017-12-23T03:33:20.004Z,0
2017-12-23T03:34:30.114Z,0
2017-12-23T03:35:40.744Z,0
2017-12-23T03:36:51.944Z,0
2017-12-23T03:38:02.089Z,0
2017-12-23T03:39:12.229Z,0
2017-12-23T03:40:22.321Z,0
2017-12-23T03:41:32.449Z,0
2017-12-23T03:42:42.333Z,0
2017-12-23T03:43:52.107Z,0
2017-12-23T03:45:02.207Z,0
2017-12-23T03:46:12.059Z,0
2017-12-23T03:47:22.155Z,0
2017-12-23T03:48:32.310Z,0
2017-12-23T03:49:42.525Z,0
2017-12-23T03:50:53.622Z,0
2017-12-23T03:52:04.447Z,0
2017-12-23T03:53:14.548Z,0
2017-12-23T03:54:24.654Z,0
2017-12-23T03:55:34.915Z,0
2017-12-23T03:56:45.102Z,0
2017-12-23T03:57:55.236Z,0
2017-12-23T03:59:05.361Z,0
2017-12-23T04:00:15.494Z,0
2017-12-23T04:01:25.400Z,0
2017-12-23T04:02:35.534Z,0
2017-12-23T04:03:45.418Z,0
2017-12-23T04:04:56.509Z,0
2017-12-23T04:06:06.614Z,0
2017-12-23T04:07:16.791Z,0
2017-12-23T04:08:26.912Z,0
2017-12-23T04:09:37.138Z,0
2017-12-23T04:10:47.268Z,0
2017-12-23T04:11:57.389Z,0
2017-12-23T04:13:07.499Z,0
2017-12-23T04:14:17.623Z,0
2017-12-23T04:15:27.728Z,0
2017-12-23T04:16:37.856Z,0
2017-12-23T04:17:48.233Z,0
2017-12-23T04:18:58.511Z,0
2017-12-23T04:20:08.652Z,0
2017-12-23T04:21:18.563Z,0
2017-12-23T04:22:28.681Z,0
2017-12-23T04:23:38.905Z,0
2017-12-23T04:24:48.807Z,0
2017-12-23T04:25:58.933Z,0
2017-12-23T04:27:09.061Z,0
2017-12-23T04:28:19.187Z,0
2017-12-23T04:29:29.445Z,0
2017-12-23T04:30:39.555Z,0
2017-12-23T04:31:49.675Z,0
2017-12-23T04:32:59.797Z,0
2017-12-23T04:34:09.925Z,0
2017-12-23T04:35:20.032Z,0
2017-12-23T04:36:30.182Z,0
2017-12-23T04:37:40.064Z,0
2017-12-23T04:38:50.202Z,0
2017-12-23T04:40:00.203Z,0
2017-12-23T04:41:10.171Z,0
2017-12-23T04:42:20.269Z,0
2017-12-23T04:43:30.392Z,0
2017-12-23T04:44:40.493Z,0
2017-12-23T04:45:50.641Z,0
2017-12-23T04:47:00.752Z,0
2017-12-23T04:48:10.636Z,0
2017-12-23T04:49:20.778Z,0
2017-12-23T04:50:31.042Z,0
2017-12-23T04:51:41.273Z,0
2017-12-23T04:52:51.416Z,0
2017-12-23T04:54:01.161Z,0
2017-12-23T04:55:11.289Z,0
2017-12-23T04:56:21.409Z,0
2017-12-23T04:57:31.549Z,0
2017-12-23T04:58:41.654Z,0
2017-12-23T04:59:51.791Z,0
2017-12-23T05:01:01.896Z,0
2017-12-23T05:02:12.005Z,0
2017-12-23T05:03:22.116Z,0
2017-12-23T05:04:31.958Z,0
2017-12-23T05:05:42.088Z,0
2017-12-23T05:06:52.181Z,0
2017-12-23T05:08:01.783Z,0
2017-12-23T05:09:11.892Z,0
2017-12-23T05:10:21.996Z,0
2017-12-23T05:11:32.125Z,0
2017-12-23T05:12:42.274Z,0
2017-12-23T05:13:52.357Z,0
2017-12-23T05:15:02.463Z,0
2017-12-23T05:16:12.606Z,0
2017-12-23T05:17:22.758Z,0
2017-12-23T05:18:32.932Z,0
2017-12-23T05:19:43.087Z,0
2017-12-23T05:20:53.284Z,0
2017-12-23T05:22:03.382Z,0
2017-12-23T05:23:13.353Z,0
2017-12-23T05:24:23.512Z,0
2017-12-23T05:25:33.639Z,0
2017-12-23T05:26:43.740Z,0
2017-12-23T05:27:53.678Z,0
2017-12-23T05:29:03.583Z,0
2017-12-23T05:30:13.718Z,0
2017-12-23T05:31:23.848Z,0
2017-12-23T05:32:33.708Z,0
2017-12-23T05:33:43.856Z,0
2017-12-23T05:34:53.981Z,0
2017-12-23T05:36:03.871Z,0
2017-12-23T05:37:14.016Z,0
2017-12-23T05:38:23.880Z,0
2017-12-23T05:39:34.005Z,0
2017-12-23T05:40:43.853Z,0
2017-12-23T05:41:54.042Z,0
2017-12-23T05:43:04.149Z,0
2017-12-23T05:44:13.999Z,0
2017-12-23T05:45:24.243Z,0
2017-12-23T05:46:34.341Z,0
2017-12-23T05:47:44.631Z,0
2017-12-23T05:48:54.752Z,0
2017-12-23T05:50:05.015Z,0
2017-12-23T05:51:15.258Z,0
2017-12-23T05:52:25.466Z,0
2017-12-23T05:53:35.728Z,0
2017-12-23T05:54:45.484Z,0
2017-12-23T05:55:55.612Z,0
2017-12-23T05:57:05.991Z,0
2017-12-23T05:58:16.108Z,0
2017-12-23T05:59:27.239Z,0
2017-12-23T06:00:37.154Z,0
2017-12-23T06:01:47.257Z,0
2017-12-23T06:02:57.434Z,0
2017-12-23T06:04:07.595Z,0
2017-12-23T06:05:17.766Z,0
2017-12-23T06:06:27.875Z,0
2017-12-23T06:07:37.765Z,0
2017-12-23T06:08:48.010Z,0
2017-12-23T06:09:58.117Z,0
2017-12-23T06:11:08.221Z,0
2017-12-23T06:12:18.324Z,0
2017-12-23T06:13:28.458Z,0
2017-12-23T06:14:38.368Z,0
2017-12-23T06:15:48.336Z,0
2017-12-23T06:16:58.163Z,0
2017-12-23T06:18:08.298Z,0
2017-12-23T06:19:18.184Z,0
2017-12-23T06:20:28.312Z,0
2017-12-23T06:21:38.479Z,0
2017-12-23T06:22:48.575Z,0
2017-12-23T06:23:58.704Z,0
2017-12-23T06:25:08.555Z,0
2017-12-23T06:26:18.643Z,0
2017-12-23T06:27:28.585Z,0
2017-12-23T06:28:38.700Z,0
2017-12-23T06:29:48.839Z,0
2017-12-23T06:30:58.939Z,0
2017-12-23T06:32:08.552Z,0
2017-12-23T06:33:18.657Z,0
2017-12-23T06:34:28.591Z,0
2017-12-23T06:35:38.824Z,0
2017-12-23T06:36:48.981Z,0
2017-12-23T06:37:59.107Z,0
2017-12-23T06:39:09.243Z,0
2017-12-23T06:40:19.431Z,0
2017-12-23T06:41:29.017Z,0
2017-12-23T06:42:38.876Z,0
2017-12-23T06:43:48.731Z,0
2017-12-23T06:44:58.852Z,0
2017-12-23T06:46:08.979Z,4
2017-12-23T06:47:19.085Z,4
2017-12-23T06:48:28.929Z,4
2017-12-23T06:49:39.130Z,0
2017-12-23T06:50:48.977Z,4
2017-12-23T06:51:59.100Z,4
2017-12-23T06:53:09.205Z,4
2017-12-23T06:54:19.446Z,4
2017-12-23T06:55:29.598Z,8
2017-12-23T06:56:39.811Z,8
2017-12-23T06:57:49.664Z,12
2017-12-23T06:58:59.836Z,8
2017-12-23T07:00:09.965Z,12
2017-12-23T07:01:20.183Z,16
2017-12-23T07:02:30.050Z,16
2017-12-23T07:03:40.175Z,24
2017-12-23T07:04:50.344Z,24
2017-12-23T07:06:00.652Z,28
2017-12-23T07:07:10.629Z,36
2017-12-23T07:08:20.748Z,44
2017-12-23T07:09:30.864Z,52
2017-12-23T07:10:42.061Z,52
2017-12-23T07:11:52.176Z,52
2017-12-23T07:13:02.444Z,52
2017-12-23T07:14:12.580Z,52
2017-12-23T07:15:22.755Z,56
2017-12-23T07:16:32.857Z,60
2017-12-23T07:17:42.975Z,68
2017-12-23T07:18:53.129Z,68
2017-12-23T07:20:03.265Z,80
2017-12-23T07:21:13.136Z,84
2017-12-23T07:22:23.296Z,100
2017-12-23T07:23:33.584Z,96
2017-12-23T07:24:43.748Z,100
2017-12-23T07:25:53.954Z,96
2017-12-23T07:27:04.080Z,108
2017-12-23T07:28:14.209Z,104
2017-12-23T07:29:24.344Z,108
2017-12-23T07:30:34.306Z,112
2017-12-23T07:31:44.522Z,124
2017-12-23T07:32:54.408Z,128
2017-12-23T07:34:04.526Z,136
2017-12-23T07:35:15.743Z,144
2017-12-23T07:36:25.858Z,148
2017-12-23T07:37:36.097Z,164
2017-12-23T07:38:46.278Z,152
2017-12-23T07:39:56.518Z,148
2017-12-23T07:41:06.678Z,156
2017-12-23T07:42:16.789Z,152
2017-12-23T07:43:26.557Z,156
2017-12-23T07:44:36.689Z,156
2017-12-23T07:45:46.796Z,188
2017-12-23T07:46:56.660Z,188
2017-12-23T07:48:06.765Z,196
2017-12-23T07:49:16.887Z,220
2017-12-23T07:50:26.798Z,216
2017-12-23T07:51:37.036Z,232
2017-12-23T07:52:47.260Z,260
2017-12-23T07:53:57.426Z,272
2017-12-23T07:55:07.276Z,300
2017-12-23T07:56:17.423Z,280
2017-12-23T07:57:28.513Z,292
2017-12-23T07:58:39.688Z,316
2017-12-23T07:59:49.898Z,356
2017-12-23T08:01:00.074Z,396
2017-12-23T08:02:10.213Z,376
2017-12-23T08:03:20.327Z,440
2017-12-23T08:04:30.549Z,416
2017-12-23T08:05:40.661Z,436
2017-12-23T08:06:50.774Z,440
2017-12-23T08:08:00.926Z,452
2017-12-23T08:09:11.037Z,428
2017-12-23T08:10:21.166Z,440
2017-12-23T08:11:31.280Z,496
2017-12-23T08:12:41.475Z,484
2017-12-23T08:13:51.620Z,560
2017-12-23T08:15:01.847Z,544
2017-12-23T08:16:11.752Z,588
2017-12-23T08:17:21.494Z,588
2017-12-23T08:18:31.611Z,600
2017-12-23T08:19:41.744Z,660
2017-12-23T08:20:51.628Z,592
2017-12-23T08:22:01.776Z,628
2017-12-23T08:23:11.883Z,696
2017-12-23T08:24:22.130Z,676
2017-12-23T08:25:32.252Z,684
2017-12-23T08:26:42.459Z,648
2017-12-23T08:27:52.709Z,664
2017-12-23T08:29:02.831Z,624
2017-12-23T08:30:12.946Z,788
2017-12-23T08:31:23.082Z,808
2017-12-23T08:32:33.258Z,844
2017-12-23T08:33:43.491Z,740
2017-12-23T08:34:53.669Z,720
2017-12-23T08:36:03.861Z,752
2017-12-23T08:37:14.069Z,820
2017-12-23T08:38:24.310Z,808
2017-12-23T08:39:34.198Z,788
2017-12-23T08:40:44.350Z,828
2017-12-23T08:41:54.493Z,760
2017-12-23T08:43:04.680Z,920
2017-12-23T08:44:14.841Z,920
2017-12-23T08:45:24.939Z,852
2017-12-23T08:46:34.686Z,908
2017-12-23T08:47:44.816Z,836
2017-12-23T08:48:54.671Z,804
2017-12-23T08:50:04.821Z,860
2017-12-23T08:51:14.669Z,860
2017-12-23T08:52:24.803Z,876
2017-12-23T08:53:34.925Z,852
2017-12-23T08:54:45.073Z,920
2017-12-23T08:55:55.210Z,964
2017-12-23T08:57:05.456Z,912
2017-12-23T08:58:15.307Z,972
2017-12-23T08:59:25.359Z,1040
2017-12-23T09:00:35.514Z,1064
2017-12-23T09:01:45.431Z,1128
2017-12-23T09:02:55.287Z,1304
2017-12-23T09:04:05.171Z,1212
2017-12-23T09:05:15.282Z,1028
2017-12-23T09:06:25.393Z,956
2017-12-23T09:07:35.525Z,1028
2017-12-23T09:08:45.671Z,980
2017-12-23T09:09:55.807Z,1080
2017-12-23T09:11:05.977Z,1264
2017-12-23T09:12:16.330Z,1484
2017-12-23T09:13:26.500Z,1528
2017-12-23T09:14:36.704Z,1528
2017-12-23T09:15:46.924Z,1460
2017-12-23T09:16:57.068Z,1532
2017-12-23T09:18:07.183Z,1132
2017-12-23T09:19:17.302Z,1348
2017-12-23T09:20:27.438Z,1156
2017-12-23T09:21:37.616Z,1124
2017-12-23T09:22:47.849Z,1160
2017-12-23T09:23:57.991Z,1328
2017-12-23T09:25:08.319Z,1588
2017-12-23T09:26:18.096Z,1180
2017-12-23T09:27:28.236Z,1488
2017-12-23T09:28:38.127Z,1420
2017-12-23T09:29:48.276Z,1508
2017-12-23T09:30:58.435Z,1448
2017-12-23T09:32:08.669Z,1476
2017-12-23T09:33:19.095Z,1704
2017-12-23T09:34:29.202Z,1420
2017-12-23T09:35:38.990Z,1684
2017-12-23T09:36:49.151Z,1516
2017-12-23T09:37:59.277Z,1840
2017-12-23T09:39:09.124Z,1924
2017-12-23T09:40:19.264Z,2196
2017-12-23T09:41:29.434Z,2140
2017-12-23T09:42:39.578Z,2496
2017-12-23T09:43:49.908Z,1924
2017-12-23T09:45:00.178Z,2280
2017-12-23T09:46:10.314Z,2868
2017-12-23T09:47:20.436Z,2084
2017-12-23T09:48:30.335Z,2076
2017-12-23T09:49:40.487Z,2184
2017-12-23T09:50:50.709Z,1976
2017-12-23T09:52:00.896Z,2244
2017-12-23T09:53:11.057Z,2200
2017-12-23T09:54:21.181Z,3040
2017-12-23T09:55:31.337Z,2364
2017-12-23T09:56:41.443Z,2532
2017-12-23T09:57:51.355Z,2260
2017-12-23T09:59:01.465Z,2136
2017-12-23T10:00:11.405Z,2216
2017-12-23T10:01:21.849Z,3048
2017-12-23T10:02:32.059Z,2604
2017-12-23T10:03:42.311Z,3428
2017-12-23T10:04:52.431Z,3532
2017-12-23T10:06:02.320Z,2996
2017-12-23T10:07:12.487Z,2692
2017-12-23T10:08:22.342Z,2380
2017-12-23T10:09:32.450Z,2408
2017-12-23T10:10:42.768Z,3168
2017-12-23T10:11:52.887Z,2868
2017-12-23T10:13:03.003Z,2412
2017-12-23T10:14:13.099Z,2600
2017-12-23T10:15:23.211Z,2568
2017-12-23T10:16:33.321Z,2184
2017-12-23T10:17:43.458Z,2792
2017-12-23T10:18:53.596Z,2180
2017-12-23T10:20:03.887Z,2432
2017-12-23T10:21:14.106Z,2176
2017-12-23T10:22:25.288Z,1780
2017-12-23T10:23:35.539Z,2148
2017-12-23T10:24:45.505Z,2200
2017-12-23T10:25:55.688Z,1764
2017-12-23T10:27:05.820Z,1932
2017-12-23T10:28:15.947Z,2008
2017-12-23T10:29:26.144Z,2076
2017-12-23T10:30:36.394Z,2400
2017-12-23T10:31:46.505Z,2720
2017-12-23T10:32:56.394Z,2688
2017-12-23T10:34:06.509Z,3132
2017-12-23T10:35:16.705Z,3716
2017-12-23T10:36:26.830Z,3152
2017-12-23T10:37:36.968Z,3760
2017-12-23T10:38:47.077Z,4104
2017-12-23T10:39:57.212Z,3868
2017-12-23T10:41:06.974Z,3400
2017-12-23T10:42:17.181Z,3696
2017-12-23T10:43:27.415Z,4044
2017-12-23T10:44:37.643Z,3368
2017-12-23T10:45:47.805Z,2564
2017-12-23T10:46:58.985Z,2884
2017-12-23T10:48:09.141Z,3392
2017-12-23T10:49:19.524Z,4592
2017-12-23T10:50:29.705Z,3028
2017-12-23T10:51:39.863Z,2128
2017-12-23T10:52:49.884Z,2084
2017-12-23T10:53:59.998Z,2520
2017-12-23T10:55:10.124Z,1832
2017-12-23T10:56:20.366Z,1724
2017-12-23T10:57:30.487Z,1716
2017-12-23T10:58:40.463Z,1964
2017-12-23T10:59:50.596Z,1852
2017-12-23T11:01:00.413Z,1600
2017-12-23T11:02:10.282Z,1764
2017-12-23T11:03:20.612Z,1504
2017-12-23T11:04:30.775Z,1808
2017-12-23T11:05:41.189Z,1436
2017-12-23T11:06:50.816Z,1608
2017-12-23T11:08:00.936Z,1516
2017-12-23T11:09:11.072Z,1568
2017-12-23T11:10:21.185Z,1540
2017-12-23T11:11:31.334Z,1476
2017-12-23T11:12:41.464Z,1456
2017-12-23T11:13:51.238Z,1424
2017-12-23T11:15:01.387Z,1624
2017-12-23T11:16:11.615Z,1440
2017-12-23T11:17:21.778Z,1516
2017-12-23T11:18:31.924Z,1432
2017-12-23T11:19:41.836Z,1532
2017-12-23T11:20:51.974Z,1516
2017-12-23T11:22:02.106Z,1524
2017-12-23T11:23:12.392Z,2092
2017-12-23T11:24:22.581Z,1956
2017-12-23T11:25:32.860Z,1548
2017-12-23T11:26:42.744Z,1620
2017-12-23T11:27:52.958Z,1568
2017-12-23T11:29:03.100Z,1632
2017-12-23T11:30:14.266Z,1988
2017-12-23T11:31:24.481Z,1776
2017-12-23T11:32:34.671Z,1728
2017-12-23T11:33:44.860Z,1764
2017-12-23T11:34:55.111Z,1828
2017-12-23T11:36:05.501Z,2084
2017-12-23T11:37:15.638Z,1808
2017-12-23T11:38:25.771Z,1544
2017-12-23T11:39:35.999Z,1792
2017-12-23T11:40:45.898Z,1832
2017-12-23T11:41:56.052Z,1960
2017-12-23T11:43:05.901Z,1652
2017-12-23T11:44:16.024Z,1520
2017-12-23T11:45:26.200Z,1700
2017-12-23T11:46:36.417Z,1548
2017-12-23T11:47:46.551Z,1440
2017-12-23T11:48:56.929Z,1628
2017-12-23T11:50:07.152Z,1636
2017-12-23T11:51:17.399Z,1532
2017-12-23T11:52:27.167Z,1512
2017-12-23T11:53:37.306Z,1568
2017-12-23T11:54:47.439Z,1364
2017-12-23T11:55:57.305Z,1628
2017-12-23T11:57:07.539Z,1624
2017-12-23T11:58:17.761Z,1532
2017-12-23T11:59:28.863Z,1640
2017-12-23T12:00:39.020Z,1464
2017-12-23T12:01:49.346Z,1540
2017-12-23T12:02:59.537Z,1768
2017-12-23T12:04:09.844Z,1608
2017-12-23T12:05:19.866Z,1516
2017-12-23T12:06:30.288Z,1624
2017-12-23T12:07:40.176Z,1408
2017-12-23T12:08:50.182Z,1596
2017-12-23T12:10:00.378Z,1372
2017-12-23T12:11:10.515Z,1684
2017-12-23T12:12:21.608Z,1516
2017-12-23T12:13:31.733Z,1668
2017-12-23T12:14:41.692Z,1884
2017-12-23T12:15:51.942Z,1688
2017-12-23T12:17:01.819Z,2004
2017-12-23T12:18:11.961Z,2484
2017-12-23T12:19:22.148Z,2300
2017-12-23T12:20:32.383Z,2276
2017-12-23T12:21:42.521Z,2376
2017-12-23T12:22:52.693Z,2288
2017-12-23T12:24:02.688Z,2260
2017-12-23T12:25:12.603Z,1972
2017-12-23T12:26:22.712Z,2072
2017-12-23T12:27:32.482Z,2180
2017-12-23T12:28:43.464Z,1908
2017-12-23T12:29:53.767Z,1644
2017-12-23T12:31:03.887Z,1600
2017-12-23T12:32:14.180Z,1580
2017-12-23T12:33:24.320Z,1648
2017-12-23T12:34:34.556Z,1420
2017-12-23T12:35:44.716Z,1288
2017-12-23T12:36:54.908Z,1504
2017-12-23T12:38:05.113Z,1468
2017-12-23T12:39:15.469Z,1592
2017-12-23T12:40:25.757Z,1424
2017-12-23T12:41:35.898Z,1536
2017-12-23T12:42:46.145Z,1684
2017-12-23T12:43:56.305Z,1396
2017-12-23T12:45:06.554Z,1328
2017-12-23T12:46:16.459Z,1392
2017-12-23T12:47:26.581Z,1452
2017-12-23T12:48:36.707Z,1328
2017-12-23T12:49:46.831Z,1244
2017-12-23T12:50:57.038Z,1620
2017-12-23T12:52:07.188Z,1504
2017-12-23T12:53:17.046Z,1524
2017-12-23T12:54:27.205Z,1696
2017-12-23T12:55:37.338Z,1556
2017-12-23T12:56:47.447Z,1508
2017-12-23T12:57:57.373Z,1512
2017-12-23T12:59:07.488Z,1348
2017-12-23T13:00:17.632Z,1476
2017-12-23T13:01:27.819Z,1408
2017-12-23T13:02:37.961Z,1252
2017-12-23T13:03:48.138Z,1236
2017-12-23T13:04:58.272Z,1192
2017-12-23T13:06:08.156Z,1116
2017-12-23T13:07:18.263Z,1152
2017-12-23T13:08:28.456Z,1184
2017-12-23T13:09:38.594Z,1144
2017-12-23T13:10:48.747Z,1168
2017-12-23T13:11:58.906Z,1240
2017-12-23T13:13:09.036Z,1108
2017-12-23T13:14:19.244Z,1028
2017-12-23T13:15:29.450Z,928
2017-12-23T13:16:39.668Z,916
2017-12-23T13:17:49.880Z,896
2017-12-23T13:19:00.085Z,928
2017-12-23T13:20:10.265Z,1000
2017-12-23T13:21:20.406Z,900
2017-12-23T13:22:30.595Z,924
2017-12-23T13:23:40.723Z,944
2017-12-23T13:24:50.659Z,1020
2017-12-23T13:26:00.848Z,1032
2017-12-23T13:27:11.062Z,980
2017-12-23T13:28:21.328Z,916
2017-12-23T13:29:31.475Z,980
2017-12-23T13:30:41.367Z,1012
2017-12-23T13:31:51.245Z,1088
2017-12-23T13:33:00.858Z,1036
2017-12-23T13:34:10.990Z,952
2017-12-23T13:35:21.215Z,1008
2017-12-23T13:36:31.191Z,924
2017-12-23T13:37:41.320Z,916
2017-12-23T13:38:51.495Z,880
2017-12-23T13:40:01.612Z,920
2017-12-23T13:41:11.489Z,836
2017-12-23T13:42:21.629Z,720
2017-12-23T13:43:31.856Z,752
2017-12-23T13:44:41.984Z,680
2017-12-23T13:45:52.216Z,628
2017-12-23T13:47:03.463Z,612
2017-12-23T13:48:14.106Z,648
2017-12-23T13:49:24.453Z,684
2017-12-23T13:50:33.938Z,620
2017-12-23T13:51:43.826Z,632
2017-12-23T13:52:55.001Z,664
2017-12-23T13:54:04.996Z,680
2017-12-23T13:55:15.108Z,684
2017-12-23T13:56:25.028Z,720
2017-12-23T13:57:35.191Z,624
2017-12-23T13:58:45.305Z,636
2017-12-23T13:59:55.442Z,544
2017-12-23T14:01:05.599Z,568
2017-12-23T14:02:15.195Z,496
2017-12-23T14:03:25.303Z,460
2017-12-23T14:04:35.147Z,520
2017-12-23T14:05:45.052Z,420
2017-12-23T14:06:55.294Z,408
2017-12-23T14:08:05.477Z,380
2017-12-23T14:09:15.675Z,308
2017-12-23T14:10:25.933Z,296
2017-12-23T14:11:35.954Z,288
2017-12-23T14:12:47.057Z,280
2017-12-23T14:13:57.195Z,264
2017-12-23T14:15:07.346Z,248
2017-12-23T14:16:17.502Z,244
2017-12-23T14:17:27.381Z,236
2017-12-23T14:18:37.538Z,236
2017-12-23T14:19:47.810Z,228
2017-12-23T14:20:57.695Z,236
2017-12-23T14:22:07.909Z,228
2017-12-23T14:23:18.060Z,248
2017-12-23T14:24:28.219Z,260
2017-12-23T14:25:38.354Z,256
2017-12-23T14:26:48.621Z,260
2017-12-23T14:27:58.858Z,240
2017-12-23T14:29:08.992Z,248
2017-12-23T14:30:19.211Z,228
2017-12-23T14:31:29.460Z,248
2017-12-23T14:32:39.658Z,248
2017-12-23T14:33:49.865Z,224
2017-12-23T14:35:00.119Z,220
2017-12-23T14:36:10.363Z,240
2017-12-23T14:37:20.497Z,216
2017-12-23T14:38:30.665Z,204
2017-12-23T14:39:40.685Z,200
2017-12-23T14:40:50.793Z,196
2017-12-23T14:42:01.166Z,192
2017-12-23T14:43:11.326Z,184
2017-12-23T14:44:21.450Z,172
2017-12-23T14:45:31.577Z,184
2017-12-23T14:46:41.754Z,156
2017-12-23T14:47:51.555Z,140
2017-12-23T14:49:01.687Z,124
2017-12-23T14:50:11.811Z,112
2017-12-23T14:51:21.983Z,116
2017-12-23T14:52:32.107Z,124
2017-12-23T14:53:42.289Z,112
2017-12-23T14:54:53.189Z,92
2017-12-23T14:56:03.301Z,88
2017-12-23T14:57:13.467Z,84
2017-12-23T14:58:23.610Z,76
2017-12-23T14:59:33.740Z,72
2017-12-23T15:00:43.851Z,68
2017-12-23T15:01:53.983Z,60
2017-12-23T15:03:04.104Z,60
2017-12-23T15:04:14.242Z,60
2017-12-23T15:05:24.370Z,60
2017-12-23T15:06:34.629Z,56
2017-12-23T15:07:44.775Z,56
2017-12-23T15:08:54.919Z,52
2017-12-23T15:10:05.050Z,44
2017-12-23T15:11:15.162Z,48
2017-12-23T15:12:25.324Z,40
2017-12-23T15:13:35.458Z,36
2017-12-23T15:14:45.657Z,36
2017-12-23T15:15:55.781Z,32
2017-12-23T15:17:05.937Z,24
2017-12-23T15:18:16.073Z,24
2017-12-23T15:19:25.976Z,20
2017-12-23T15:20:36.107Z,20
2017-12-23T15:21:46.216Z,16
2017-12-23T15:22:56.438Z,12
2017-12-23T15:24:06.568Z,8
2017-12-23T15:25:16.706Z,12
2017-12-23T15:26:27.786Z,8
2017-12-23T15:27:37.996Z,8
2017-12-23T15:28:47.896Z,8
2017-12-23T15:29:58.153Z,4
2017-12-23T15:31:08.283Z,4
2017-12-23T15:32:18.517Z,4
2017-12-23T15:33:28.673Z,4
2017-12-23T15:34:38.797Z,4
2017-12-23T15:35:48.914Z,4
2017-12-23T15:36:58.861Z,4
2017-12-23T15:38:08.641Z,0
2017-12-23T15:39:18.645Z,4
2017-12-23T15:40:28.759Z,0
2017-12-23T15:41:39.010Z,0
2017-12-23T15:42:48.763Z,0
2017-12-23T15:43:58.894Z,0
2017-12-23T15:45:09.042Z,0
2017-12-23T15:46:18.826Z,0
2017-12-23T15:47:28.961Z,0
2017-12-23T15:48:38.932Z,0
2017-12-23T15:49:49.084Z,0
2017-12-23T15:50:59.205Z,0
2017-12-23T15:52:09.487Z,0
2017-12-23T15:53:19.755Z,0
2017-12-23T15:54:30.011Z,0
2017-12-23T15:55:40.141Z,0
2017-12-23T15:56:50.030Z,0
2017-12-23T15:58:00.193Z,0
2017-12-23T15:59:10.338Z,0
2017-12-23T16:00:20.521Z,0
2017-12-23T16:01:30.709Z,0
2017-12-23T16:02:40.909Z,0
2017-12-23T16:03:51.080Z,0
2017-12-23T16:05:01.333Z,0
2017-12-23T16:06:11.501Z,0
2017-12-23T16:07:21.737Z,0
2017-12-23T16:08:31.859Z,0
2017-12-23T16:09:41.988Z,0
2017-12-23T16:10:52.114Z,0
2017-12-23T16:12:02.326Z,0
2017-12-23T16:13:12.215Z,0
2017-12-23T16:14:22.375Z,0
2017-12-23T16:15:32.521Z,0
2017-12-23T16:16:42.664Z,0
2017-12-23T16:17:52.829Z,0
2017-12-23T16:19:03.049Z,0
2017-12-23T16:20:12.975Z,0
2017-12-23T16:21:23.148Z,0
2017-12-23T16:22:33.296Z,0
2017-12-23T16:23:42.920Z,0
2017-12-23T16:24:53.062Z,0
2017-12-23T16:26:03.263Z,0
2017-12-23T16:27:13.418Z,0
2017-12-23T16:28:23.588Z,0
2017-12-23T16:29:33.759Z,0
2017-12-23T16:30:43.899Z,0
2017-12-23T16:31:54.041Z,0